sensor_id;sensor_type;location;lat;lon;timestamp;P1;durP1;ratioP1;P2;durP2;ratioP2
76582;SDS011;65462;52.148;7.940;2023-04-24T00:01:13;0.52;;;0.50;;
76582;SDS011;65462;52.148;7.940;2023-04-24T00:03:40;1.55;;;0.82;;
76582;SDS011;65462;52.148;7.940;2023-04-24T00:06:06;1.05;;;0.77;;
76582;SDS011;65462;52.148;7.940;2023-04-24T00:08:33;1.92;;;0.93;;
76582;SDS011;65462;52.148;7.940;2023-04-24T00:10:59;1.85;;;1.48;;
76582;SDS011;65462;52.148;7.940;2023-04-24T00:13:24;2.47;;;1.65;;
76582;SDS011;65462;52.148;7.940;2023-04-24T00:15:50;3.40;;;1.50;;
76582;SDS011;65462;52.148;7.940;2023-04-24T00:18:15;3.50;;;1.45;;
76582;SDS011;65462;52.148;7.940;2023-04-24T00:20:40;3.15;;;1.60;;
76582;SDS011;65462;52.148;7.940;2023-04-24T00:23:06;2.22;;;1.40;;
76582;SDS011;65462;52.148;7.940;2023-04-24T00:25:31;1.25;;;1.13;;
76582;SDS011;65462;52.148;7.940;2023-04-24T00:27:56;2.70;;;1.27;;
76582;SDS011;65462;52.148;7.940;2023-04-24T00:30:21;2.92;;;1.30;;
76582;SDS011;65462;52.148;7.940;2023-04-24T00:32:47;1.77;;;1.20;;
76582;SDS011;65462;52.148;7.940;2023-04-24T00:35:12;1.77;;;1.10;;
76582;SDS011;65462;52.148;7.940;2023-04-24T00:37:37;1.65;;;1.10;;
76582;SDS011;65462;52.148;7.940;2023-04-24T00:40:03;1.60;;;1.10;;
76582;SDS011;65462;52.148;7.940;2023-04-24T00:42:29;1.65;;;1.02;;
76582;SDS011;65462;52.148;7.940;2023-04-24T00:44:54;2.95;;;1.23;;
76582;SDS011;65462;52.148;7.940;2023-04-24T00:47:21;1.70;;;1.20;;
76582;SDS011;65462;52.148;7.940;2023-04-24T00:49:47;1.63;;;1.15;;
76582;SDS011;65462;52.148;7.940;2023-04-24T00:52:12;2.72;;;1.17;;
76582;SDS011;65462;52.148;7.940;2023-04-24T00:54:42;1.48;;;1.20;;
76582;SDS011;65462;52.148;7.940;2023-04-24T00:57:08;2.65;;;1.20;;
76582;SDS011;65462;52.148;7.940;2023-04-24T00:59:33;1.92;;;1.00;;
76582;SDS011;65462;52.148;7.940;2023-04-24T01:01:59;1.33;;;1.10;;
76582;SDS011;65462;52.148;7.940;2023-04-24T01:04:24;1.60;;;0.98;;
76582;SDS011;65462;52.148;7.940;2023-04-24T01:06:51;3.05;;;1.20;;
76582;SDS011;65462;52.148;7.940;2023-04-24T01:09:16;1.75;;;1.33;;
76582;SDS011;65462;52.148;7.940;2023-04-24T01:11:43;1.88;;;0.80;;
76582;SDS011;65462;52.148;7.940;2023-04-24T01:14:08;1.08;;;0.95;;
76582;SDS011;65462;52.148;7.940;2023-04-24T01:16:34;2.25;;;1.08;;
76582;SDS011;65462;52.148;7.940;2023-04-24T01:19:00;1.08;;;0.80;;
76582;SDS011;65462;52.148;7.940;2023-04-24T01:21:26;2.00;;;0.90;;
76582;SDS011;65462;52.148;7.940;2023-04-24T01:23:54;1.58;;;0.80;;
76582;SDS011;65462;52.148;7.940;2023-04-24T01:26:20;2.00;;;0.93;;
76582;SDS011;65462;52.148;7.940;2023-04-24T01:28:47;4.95;;;0.95;;
76582;SDS011;65462;52.148;7.940;2023-04-24T01:31:12;1.70;;;0.75;;
76582;SDS011;65462;52.148;7.940;2023-04-24T01:33:39;1.42;;;0.70;;
76582;SDS011;65462;52.148;7.940;2023-04-24T01:36:06;1.00;;;0.73;;
76582;SDS011;65462;52.148;7.940;2023-04-24T01:38:32;2.42;;;0.70;;
76582;SDS011;65462;52.148;7.940;2023-04-24T01:40:58;1.55;;;0.80;;
76582;SDS011;65462;52.148;7.940;2023-04-24T01:43:23;2.35;;;0.80;;
76582;SDS011;65462;52.148;7.940;2023-04-24T01:45:49;2.35;;;0.77;;
76582;SDS011;65462;52.148;7.940;2023-04-24T01:48:14;1.15;;;0.80;;
76582;SDS011;65462;52.148;7.940;2023-04-24T01:50:39;2.05;;;0.63;;
76582;SDS011;65462;52.148;7.940;2023-04-24T01:53:05;2.88;;;0.90;;
76582;SDS011;65462;52.148;7.940;2023-04-24T01:55:30;2.03;;;0.90;;
76582;SDS011;65462;52.148;7.940;2023-04-24T01:57:56;1.35;;;0.80;;
76582;SDS011;65462;52.148;7.940;2023-04-24T02:00:22;1.48;;;0.80;;
76582;SDS011;65462;52.148;7.940;2023-04-24T02:02:47;0.85;;;0.55;;
76582;SDS011;65462;52.148;7.940;2023-04-24T02:05:12;1.25;;;0.70;;
76582;SDS011;65462;52.148;7.940;2023-04-24T02:07:38;1.73;;;0.80;;
76582;SDS011;65462;52.148;7.940;2023-04-24T02:10:03;2.05;;;0.80;;
76582;SDS011;65462;52.148;7.940;2023-04-24T02:12:29;1.08;;;0.82;;
76582;SDS011;65462;52.148;7.940;2023-04-24T02:14:55;2.08;;;0.80;;
76582;SDS011;65462;52.148;7.940;2023-04-24T02:17:20;1.95;;;0.70;;
76582;SDS011;65462;52.148;7.940;2023-04-24T02:19:46;2.00;;;0.80;;
76582;SDS011;65462;52.148;7.940;2023-04-24T02:22:11;1.08;;;0.80;;
76582;SDS011;65462;52.148;7.940;2023-04-24T02:24:37;2.10;;;1.20;;
76582;SDS011;65462;52.148;7.940;2023-04-24T02:27:03;1.90;;;1.20;;
76582;SDS011;65462;52.148;7.940;2023-04-24T02:29:28;3.17;;;1.40;;
76582;SDS011;65462;52.148;7.940;2023-04-24T02:31:53;2.00;;;1.30;;
76582;SDS011;65462;52.148;7.940;2023-04-24T02:34:19;3.45;;;1.30;;
76582;SDS011;65462;52.148;7.940;2023-04-24T02:36:44;2.75;;;1.10;;
76582;SDS011;65462;52.148;7.940;2023-04-24T02:39:09;1.92;;;1.20;;
76582;SDS011;65462;52.148;7.940;2023-04-24T02:41:35;1.63;;;1.20;;
76582;SDS011;65462;52.148;7.940;2023-04-24T02:44:00;1.83;;;1.50;;
76582;SDS011;65462;52.148;7.940;2023-04-24T02:46:25;2.60;;;1.45;;
76582;SDS011;65462;52.148;7.940;2023-04-24T02:48:51;2.33;;;1.60;;
76582;SDS011;65462;52.148;7.940;2023-04-24T02:51:16;1.83;;;1.50;;
76582;SDS011;65462;52.148;7.940;2023-04-24T02:53:41;3.65;;;1.80;;
76582;SDS011;65462;52.148;7.940;2023-04-24T02:56:07;2.10;;;1.50;;
76582;SDS011;65462;52.148;7.940;2023-04-24T02:58:32;3.45;;;1.35;;
76582;SDS011;65462;52.148;7.940;2023-04-24T03:00:58;1.92;;;1.27;;
76582;SDS011;65462;52.148;7.940;2023-04-24T03:03:23;2.40;;;1.30;;
76582;SDS011;65462;52.148;7.940;2023-04-24T03:05:48;1.13;;;1.00;;
76582;SDS011;65462;52.148;7.940;2023-04-24T03:08:15;1.70;;;1.20;;
76582;SDS011;65462;52.148;7.940;2023-04-24T03:10:40;3.25;;;1.38;;
76582;SDS011;65462;52.148;7.940;2023-04-24T03:13:05;2.58;;;1.40;;
76582;SDS011;65462;52.148;7.940;2023-04-24T03:15:31;2.42;;;1.42;;
76582;SDS011;65462;52.148;7.940;2023-04-24T03:17:56;4.28;;;1.88;;
76582;SDS011;65462;52.148;7.940;2023-04-24T03:20:21;2.05;;;1.45;;
76582;SDS011;65462;52.148;7.940;2023-04-24T03:22:47;3.08;;;1.90;;
76582;SDS011;65462;52.148;7.940;2023-04-24T03:25:12;1.92;;;1.65;;
76582;SDS011;65462;52.148;7.940;2023-04-24T03:27:37;4.32;;;2.08;;
76582;SDS011;65462;52.148;7.940;2023-04-24T03:30:04;3.58;;;2.30;;
76582;SDS011;65462;52.148;7.940;2023-04-24T03:32:31;4.40;;;2.28;;
76582;SDS011;65462;52.148;7.940;2023-04-24T03:34:57;2.80;;;2.50;;
76582;SDS011;65462;52.148;7.940;2023-04-24T03:37:22;3.20;;;2.53;;
76582;SDS011;65462;52.148;7.940;2023-04-24T03:39:47;4.40;;;3.00;;
76582;SDS011;65462;52.148;7.940;2023-04-24T03:42:13;4.05;;;3.30;;
76582;SDS011;65462;52.148;7.940;2023-04-24T03:44:38;5.72;;;3.35;;
76582;SDS011;65462;52.148;7.940;2023-04-24T03:47:03;4.90;;;3.53;;
76582;SDS011;65462;52.148;7.940;2023-04-24T03:49:28;6.00;;;4.03;;
76582;SDS011;65462;52.148;7.940;2023-04-24T03:51:54;9.35;;;4.20;;
76582;SDS011;65462;52.148;7.940;2023-04-24T03:54:19;8.43;;;4.78;;
76582;SDS011;65462;52.148;7.940;2023-04-24T03:56:44;6.32;;;4.47;;
76582;SDS011;65462;52.148;7.940;2023-04-24T03:59:11;7.28;;;4.38;;
76582;SDS011;65462;52.148;7.940;2023-04-24T04:01:37;7.95;;;4.32;;
76582;SDS011;65462;52.148;7.940;2023-04-24T04:04:05;7.35;;;4.78;;
76582;SDS011;65462;52.148;7.940;2023-04-24T04:06:31;9.20;;;4.50;;
76582;SDS011;65462;52.148;7.940;2023-04-24T04:08:57;6.28;;;4.75;;
76582;SDS011;65462;52.148;7.940;2023-04-24T04:11:23;7.45;;;4.82;;
76582;SDS011;65462;52.148;7.940;2023-04-24T04:13:48;6.13;;;4.65;;
76582;SDS011;65462;52.148;7.940;2023-04-24T04:16:13;6.72;;;5.13;;
76582;SDS011;65462;52.148;7.940;2023-04-24T04:18:41;7.82;;;5.90;;
76582;SDS011;65462;52.148;7.940;2023-04-24T04:21:07;7.72;;;5.63;;
76582;SDS011;65462;52.148;7.940;2023-04-24T04:23:32;7.72;;;5.57;;
76582;SDS011;65462;52.148;7.940;2023-04-24T04:25:57;8.77;;;5.30;;
76582;SDS011;65462;52.148;7.940;2023-04-24T04:28:23;7.80;;;5.90;;
76582;SDS011;65462;52.148;7.940;2023-04-24T04:30:49;7.38;;;5.63;;
76582;SDS011;65462;52.148;7.940;2023-04-24T04:33:18;8.27;;;5.93;;
76582;SDS011;65462;52.148;7.940;2023-04-24T04:35:44;9.02;;;6.15;;
76582;SDS011;65462;52.148;7.940;2023-04-24T04:38:09;10.05;;;7.15;;
76582;SDS011;65462;52.148;7.940;2023-04-24T04:40:35;9.98;;;6.85;;
76582;SDS011;65462;52.148;7.940;2023-04-24T04:43:01;8.55;;;6.45;;
76582;SDS011;65462;52.148;7.940;2023-04-24T04:45:27;8.88;;;7.20;;
76582;SDS011;65462;52.148;7.940;2023-04-24T04:47:53;9.10;;;6.90;;
76582;SDS011;65462;52.148;7.940;2023-04-24T04:50:20;9.05;;;6.65;;
76582;SDS011;65462;52.148;7.940;2023-04-24T04:52:45;10.20;;;6.88;;
76582;SDS011;65462;52.148;7.940;2023-04-24T04:55:11;10.82;;;7.68;;
76582;SDS011;65462;52.148;7.940;2023-04-24T04:57:38;9.85;;;7.63;;
76582;SDS011;65462;52.148;7.940;2023-04-24T05:00:03;12.43;;;7.75;;
76582;SDS011;65462;52.148;7.940;2023-04-24T05:02:29;14.68;;;7.85;;
76582;SDS011;65462;52.148;7.940;2023-04-24T05:04:55;9.90;;;7.43;;
76582;SDS011;65462;52.148;7.940;2023-04-24T05:07:20;13.00;;;9.48;;
76582;SDS011;65462;52.148;7.940;2023-04-24T05:09:45;12.88;;;8.68;;
76582;SDS011;65462;52.148;7.940;2023-04-24T05:12:11;12.25;;;9.10;;
76582;SDS011;65462;52.148;7.940;2023-04-24T05:14:36;12.45;;;8.63;;
76582;SDS011;65462;52.148;7.940;2023-04-24T05:17:02;15.02;;;9.02;;
76582;SDS011;65462;52.148;7.940;2023-04-24T05:19:27;13.32;;;9.45;;
76582;SDS011;65462;52.148;7.940;2023-04-24T05:21:53;15.85;;;10.60;;
76582;SDS011;65462;52.148;7.940;2023-04-24T05:24:18;16.23;;;10.77;;
76582;SDS011;65462;52.148;7.940;2023-04-24T05:26:43;15.10;;;9.77;;
76582;SDS011;65462;52.148;7.940;2023-04-24T05:29:08;16.83;;;11.40;;
76582;SDS011;65462;52.148;7.940;2023-04-24T05:31:34;18.65;;;11.77;;
76582;SDS011;65462;52.148;7.940;2023-04-24T05:33:59;19.98;;;10.75;;
76582;SDS011;65462;52.148;7.940;2023-04-24T05:36:24;17.55;;;11.45;;
76582;SDS011;65462;52.148;7.940;2023-04-24T05:38:50;15.85;;;11.73;;
76582;SDS011;65462;52.148;7.940;2023-04-24T05:41:15;16.75;;;11.45;;
76582;SDS011;65462;52.148;7.940;2023-04-24T05:43:40;18.67;;;11.02;;
76582;SDS011;65462;52.148;7.940;2023-04-24T05:46:06;18.98;;;12.32;;
76582;SDS011;65462;52.148;7.940;2023-04-24T05:48:31;22.45;;;12.70;;
76582;SDS011;65462;52.148;7.940;2023-04-24T05:50:56;18.70;;;12.07;;
76582;SDS011;65462;52.148;7.940;2023-04-24T05:53:21;16.02;;;11.60;;
76582;SDS011;65462;52.148;7.940;2023-04-24T05:55:47;18.25;;;12.35;;
76582;SDS011;65462;52.148;7.940;2023-04-24T05:58:12;16.35;;;11.57;;
76582;SDS011;65462;52.148;7.940;2023-04-24T06:00:37;17.42;;;11.90;;
76582;SDS011;65462;52.148;7.940;2023-04-24T06:03:04;21.00;;;11.55;;
76582;SDS011;65462;52.148;7.940;2023-04-24T06:05:30;17.77;;;11.43;;
76582;SDS011;65462;52.148;7.940;2023-04-24T06:07:55;18.13;;;12.38;;
76582;SDS011;65462;52.148;7.940;2023-04-24T06:10:20;20.10;;;12.50;;
76582;SDS011;65462;52.148;7.940;2023-04-24T06:12:46;18.05;;;11.82;;
76582;SDS011;65462;52.148;7.940;2023-04-24T06:15:11;16.65;;;12.23;;
76582;SDS011;65462;52.148;7.940;2023-04-24T06:17:36;17.60;;;11.13;;
76582;SDS011;65462;52.148;7.940;2023-04-24T06:20:02;19.48;;;12.85;;
76582;SDS011;65462;52.148;7.940;2023-04-24T06:22:30;20.20;;;11.77;;
76582;SDS011;65462;52.148;7.940;2023-04-24T06:24:55;17.10;;;11.65;;
76582;SDS011;65462;52.148;7.940;2023-04-24T06:27:20;16.42;;;11.48;;
76582;SDS011;65462;52.148;7.940;2023-04-24T06:29:45;19.02;;;11.40;;
76582;SDS011;65462;52.148;7.940;2023-04-24T06:32:11;15.70;;;11.48;;
76582;SDS011;65462;52.148;7.940;2023-04-24T06:34:36;16.92;;;11.60;;
76582;SDS011;65462;52.148;7.940;2023-04-24T06:37:01;15.50;;;11.05;;
76582;SDS011;65462;52.148;7.940;2023-04-24T06:39:27;15.52;;;11.15;;
76582;SDS011;65462;52.148;7.940;2023-04-24T06:41:52;16.90;;;11.35;;
76582;SDS011;65462;52.148;7.940;2023-04-24T06:44:17;16.05;;;10.63;;
76582;SDS011;65462;52.148;7.940;2023-04-24T06:46:43;18.15;;;11.02;;
76582;SDS011;65462;52.148;7.940;2023-04-24T06:49:09;21.73;;;10.90;;
76582;SDS011;65462;52.148;7.940;2023-04-24T06:51:34;16.73;;;11.00;;
76582;SDS011;65462;52.148;7.940;2023-04-24T06:54:00;16.55;;;10.88;;
76582;SDS011;65462;52.148;7.940;2023-04-24T06:56:25;14.95;;;10.27;;
76582;SDS011;65462;52.148;7.940;2023-04-24T06:58:51;18.00;;;10.75;;
76582;SDS011;65462;52.148;7.940;2023-04-24T07:01:17;14.55;;;10.20;;
76582;SDS011;65462;52.148;7.940;2023-04-24T07:03:42;14.63;;;9.68;;
76582;SDS011;65462;52.148;7.940;2023-04-24T07:06:07;14.02;;;9.23;;
76582;SDS011;65462;52.148;7.940;2023-04-24T07:08:35;15.75;;;10.13;;
76582;SDS011;65462;52.148;7.940;2023-04-24T07:11:00;15.65;;;9.52;;
76582;SDS011;65462;52.148;7.940;2023-04-24T07:13:26;12.15;;;9.10;;
76582;SDS011;65462;52.148;7.940;2023-04-24T07:15:53;16.08;;;9.98;;
76582;SDS011;65462;52.148;7.940;2023-04-24T07:18:20;14.23;;;9.50;;
76582;SDS011;65462;52.148;7.940;2023-04-24T07:20:45;12.23;;;8.95;;
76582;SDS011;65462;52.148;7.940;2023-04-24T07:23:11;12.63;;;9.00;;
76582;SDS011;65462;52.148;7.940;2023-04-24T07:25:36;16.08;;;9.48;;
76582;SDS011;65462;52.148;7.940;2023-04-24T07:28:01;16.13;;;10.27;;
76582;SDS011;65462;52.148;7.940;2023-04-24T07:30:27;13.68;;;10.20;;
76582;SDS011;65462;52.148;7.940;2023-04-24T07:32:54;13.27;;;9.43;;
76582;SDS011;65462;52.148;7.940;2023-04-24T07:35:20;13.30;;;9.68;;
76582;SDS011;65462;52.148;7.940;2023-04-24T07:37:46;13.02;;;8.85;;
76582;SDS011;65462;52.148;7.940;2023-04-24T07:40:14;11.38;;;9.32;;
76582;SDS011;65462;52.148;7.940;2023-04-24T07:42:40;15.93;;;8.93;;
76582;SDS011;65462;52.148;7.940;2023-04-24T07:45:06;12.80;;;9.20;;
76582;SDS011;65462;52.148;7.940;2023-04-24T07:47:32;13.63;;;9.32;;
76582;SDS011;65462;52.148;7.940;2023-04-24T07:49:58;12.57;;;9.25;;
76582;SDS011;65462;52.148;7.940;2023-04-24T07:52:24;13.13;;;9.80;;
76582;SDS011;65462;52.148;7.940;2023-04-24T07:54:49;12.27;;;9.45;;
76582;SDS011;65462;52.148;7.940;2023-04-24T07:57:15;14.23;;;9.70;;
76582;SDS011;65462;52.148;7.940;2023-04-24T07:59:41;13.82;;;9.80;;
76582;SDS011;65462;52.148;7.940;2023-04-24T08:02:06;14.90;;;9.60;;
76582;SDS011;65462;52.148;7.940;2023-04-24T08:04:32;13.30;;;8.95;;
76582;SDS011;65462;52.148;7.940;2023-04-24T08:06:57;12.02;;;8.82;;
76582;SDS011;65462;52.148;7.940;2023-04-24T08:09:22;12.93;;;9.10;;
76582;SDS011;65462;52.148;7.940;2023-04-24T08:11:48;10.90;;;8.02;;
76582;SDS011;65462;52.148;7.940;2023-04-24T08:14:13;11.73;;;8.10;;
76582;SDS011;65462;52.148;7.940;2023-04-24T08:16:39;11.52;;;7.80;;
76582;SDS011;65462;52.148;7.940;2023-04-24T08:19:05;10.38;;;7.65;;
76582;SDS011;65462;52.148;7.940;2023-04-24T08:21:30;8.25;;;6.55;;
76582;SDS011;65462;52.148;7.940;2023-04-24T08:23:56;8.55;;;6.63;;
76582;SDS011;65462;52.148;7.940;2023-04-24T08:26:22;8.35;;;6.35;;
76582;SDS011;65462;52.148;7.940;2023-04-24T08:28:47;10.40;;;6.57;;
76582;SDS011;65462;52.148;7.940;2023-04-24T08:31:12;10.73;;;6.28;;
76582;SDS011;65462;52.148;7.940;2023-04-24T08:33:38;8.63;;;6.38;;
76582;SDS011;65462;52.148;7.940;2023-04-24T08:36:04;8.00;;;5.43;;
76582;SDS011;65462;52.148;7.940;2023-04-24T08:38:30;7.90;;;5.30;;
76582;SDS011;65462;52.148;7.940;2023-04-24T08:40:56;7.78;;;5.78;;
76582;SDS011;65462;52.148;7.940;2023-04-24T08:43:23;6.55;;;5.40;;
76582;SDS011;65462;52.148;7.940;2023-04-24T08:45:48;6.20;;;4.90;;
76582;SDS011;65462;52.148;7.940;2023-04-24T08:48:14;5.95;;;4.75;;
76582;SDS011;65462;52.148;7.940;2023-04-24T08:50:40;7.20;;;5.28;;
76582;SDS011;65462;52.148;7.940;2023-04-24T08:53:08;6.82;;;4.85;;
76582;SDS011;65462;52.148;7.940;2023-04-24T08:55:33;6.53;;;4.50;;
76582;SDS011;65462;52.148;7.940;2023-04-24T08:57:59;7.97;;;5.00;;
76582;SDS011;65462;52.148;7.940;2023-04-24T09:00:26;7.47;;;5.00;;
76582;SDS011;65462;52.148;7.940;2023-04-24T09:02:53;9.13;;;5.40;;
76582;SDS011;65462;52.148;7.940;2023-04-24T09:05:18;5.55;;;4.43;;
76582;SDS011;65462;52.148;7.940;2023-04-24T09:07:55;5.90;;;4.40;;
76582;SDS011;65462;52.148;7.940;2023-04-24T09:10:24;5.88;;;4.93;;
76582;SDS011;65462;52.148;7.940;2023-04-24T09:12:50;6.05;;;4.50;;
76582;SDS011;65462;52.148;7.940;2023-04-24T09:15:17;6.40;;;4.97;;
76582;SDS011;65462;52.148;7.940;2023-04-24T09:17:43;5.85;;;4.57;;
76582;SDS011;65462;52.148;7.940;2023-04-24T09:20:09;6.60;;;5.50;;
76582;SDS011;65462;52.148;7.940;2023-04-24T09:22:34;6.43;;;5.80;;
76582;SDS011;65462;52.148;7.940;2023-04-24T09:25:04;6.85;;;5.80;;
76582;SDS011;65462;52.148;7.940;2023-04-24T09:27:32;6.38;;;5.75;;
76582;SDS011;65462;52.148;7.940;2023-04-24T09:29:58;8.45;;;6.05;;
76582;SDS011;65462;52.148;7.940;2023-04-24T09:32:24;6.35;;;5.50;;
76582;SDS011;65462;52.148;7.940;2023-04-24T09:35:10;5.90;;;5.18;;
76582;SDS011;65462;52.148;7.940;2023-04-24T09:37:38;5.82;;;5.18;;
76582;SDS011;65462;52.148;7.940;2023-04-24T09:40:17;6.00;;;5.40;;
76582;SDS011;65462;52.148;7.940;2023-04-24T09:42:51;5.55;;;4.80;;
76582;SDS011;65462;52.148;7.940;2023-04-24T09:47:43;7.25;;;5.60;;
76582;SDS011;65462;52.148;7.940;2023-04-24T09:50:12;7.78;;;5.28;;
76582;SDS011;65462;52.148;7.940;2023-04-24T09:52:39;5.60;;;5.10;;
76582;SDS011;65462;52.148;7.940;2023-04-24T09:55:12;6.55;;;4.82;;
76582;SDS011;65462;52.148;7.940;2023-04-24T09:57:50;8.10;;;5.18;;
76582;SDS011;65462;52.148;7.940;2023-04-24T10:00:23;6.50;;;5.47;;
76582;SDS011;65462;52.148;7.940;2023-04-24T10:03:09;6.13;;;5.53;;
76582;SDS011;65462;52.148;7.940;2023-04-24T10:05:35;6.22;;;5.53;;
76582;SDS011;65462;52.148;7.940;2023-04-24T10:08:03;7.57;;;5.45;;
76582;SDS011;65462;52.148;7.940;2023-04-24T10:10:34;7.07;;;5.05;;
76582;SDS011;65462;52.148;7.940;2023-04-24T10:13:03;5.82;;;5.13;;
76582;SDS011;65462;52.148;7.940;2023-04-24T10:15:28;5.88;;;4.65;;
76582;SDS011;65462;52.148;7.940;2023-04-24T10:17:55;6.50;;;4.55;;
76582;SDS011;65462;52.148;7.940;2023-04-24T10:20:27;4.82;;;4.32;;
76582;SDS011;65462;52.148;7.940;2023-04-24T10:22:54;4.40;;;3.88;;
76582;SDS011;65462;52.148;7.940;2023-04-24T10:25:22;4.97;;;4.40;;
76582;SDS011;65462;52.148;7.940;2023-04-24T10:27:49;3.63;;;3.25;;
76582;SDS011;65462;52.148;7.940;2023-04-24T10:30:15;3.22;;;2.83;;
76582;SDS011;65462;52.148;7.940;2023-04-24T10:32:41;3.40;;;2.47;;
76582;SDS011;65462;52.148;7.940;2023-04-24T10:35:07;2.30;;;1.98;;
76582;SDS011;65462;52.148;7.940;2023-04-24T10:37:46;3.97;;;2.00;;
76582;SDS011;65462;52.148;7.940;2023-04-24T10:40:17;2.40;;;1.70;;
76582;SDS011;65462;52.148;7.940;2023-04-24T10:42:46;2.28;;;1.60;;
76582;SDS011;65462;52.148;7.940;2023-04-24T10:45:18;1.67;;;1.20;;
76582;SDS011;65462;52.148;7.940;2023-04-24T10:47:50;2.20;;;1.40;;
76582;SDS011;65462;52.148;7.940;2023-04-24T10:50:19;2.65;;;1.25;;
76582;SDS011;65462;52.148;7.940;2023-04-24T10:52:48;2.47;;;1.20;;
76582;SDS011;65462;52.148;7.940;2023-04-24T10:58:06;1.85;;;1.27;;
76582;SDS011;65462;52.148;7.940;2023-04-24T11:00:32;2.22;;;1.02;;
76582;SDS011;65462;52.148;7.940;2023-04-24T11:02:57;1.85;;;0.80;;
76582;SDS011;65462;52.148;7.940;2023-04-24T11:05:24;0.60;;;0.60;;
76582;SDS011;65462;52.148;7.940;2023-04-24T11:08:16;1.05;;;0.77;;
76582;SDS011;65462;52.148;7.940;2023-04-24T11:10:47;1.35;;;1.00;;
76582;SDS011;65462;52.148;7.940;2023-04-24T11:13:27;1.20;;;0.80;;
76582;SDS011;65462;52.148;7.940;2023-04-24T11:19:04;1.60;;;1.05;;
76582;SDS011;65462;52.148;7.940;2023-04-24T11:24:29;4.38;;;1.77;;
76582;SDS011;65462;52.148;7.940;2023-04-24T11:27:17;3.70;;;2.35;;
76582;SDS011;65462;52.148;7.940;2023-04-24T11:32:47;4.10;;;2.90;;
76582;SDS011;65462;52.148;7.940;2023-04-24T11:35:05;5.30;;;3.28;;
76582;SDS011;65462;52.148;7.940;2023-04-24T11:37:37;4.43;;;3.60;;
76582;SDS011;65462;52.148;7.940;2023-04-24T11:40:07;6.07;;;3.80;;
76582;SDS011;65462;52.148;7.940;2023-04-24T11:42:35;5.18;;;3.75;;
76582;SDS011;65462;52.148;7.940;2023-04-24T11:45:01;6.07;;;4.00;;
76582;SDS011;65462;52.148;7.940;2023-04-24T11:47:27;6.97;;;3.90;;
76582;SDS011;65462;52.148;7.940;2023-04-24T11:49:53;7.88;;;4.47;;
76582;SDS011;65462;52.148;7.940;2023-04-24T11:52:19;7.60;;;4.32;;
76582;SDS011;65462;52.148;7.940;2023-04-24T11:54:48;8.07;;;4.80;;
76582;SDS011;65462;52.148;7.940;2023-04-24T11:57:14;8.68;;;5.03;;
76582;SDS011;65462;52.148;7.940;2023-04-24T11:59:40;10.35;;;4.38;;
76582;SDS011;65462;52.148;7.940;2023-04-24T12:02:05;8.70;;;4.57;;
76582;SDS011;65462;52.148;7.940;2023-04-24T12:04:40;8.27;;;4.63;;
76582;SDS011;65462;52.148;7.940;2023-04-24T12:07:06;10.88;;;4.35;;
76582;SDS011;65462;52.148;7.940;2023-04-24T12:12:25;7.10;;;4.70;;
76582;SDS011;65462;52.148;7.940;2023-04-24T12:14:58;6.50;;;4.20;;
76582;SDS011;65462;52.148;7.940;2023-04-24T12:17:24;9.07;;;4.82;;
76582;SDS011;65462;52.148;7.940;2023-04-24T12:20:02;8.90;;;4.43;;
76582;SDS011;65462;52.148;7.940;2023-04-24T12:25:11;8.77;;;4.63;;
76582;SDS011;65462;52.148;7.940;2023-04-24T12:27:36;8.48;;;4.25;;
76582;SDS011;65462;52.148;7.940;2023-04-24T12:30:03;8.60;;;4.75;;
76582;SDS011;65462;52.148;7.940;2023-04-24T12:32:30;4.65;;;3.42;;
76582;SDS011;65462;52.148;7.940;2023-04-24T12:34:55;4.88;;;3.00;;
76582;SDS011;65462;52.148;7.940;2023-04-24T12:37:24;5.88;;;3.15;;
76582;SDS011;65462;52.148;7.940;2023-04-24T12:40:02;4.72;;;2.65;;
76582;SDS011;65462;52.148;7.940;2023-04-24T12:42:35;4.28;;;2.63;;
76582;SDS011;65462;52.148;7.940;2023-04-24T12:45:06;3.70;;;2.20;;
76582;SDS011;65462;52.148;7.940;2023-04-24T12:47:33;4.47;;;2.60;;
76582;SDS011;65462;52.148;7.940;2023-04-24T12:49:59;6.70;;;2.50;;
76582;SDS011;65462;52.148;7.940;2023-04-24T12:52:26;6.50;;;2.53;;
76582;SDS011;65462;52.148;7.940;2023-04-24T12:54:53;4.70;;;2.40;;
76582;SDS011;65462;52.148;7.940;2023-04-24T12:57:20;3.53;;;2.30;;
76582;SDS011;65462;52.148;7.940;2023-04-24T12:59:45;6.55;;;2.50;;
76582;SDS011;65462;52.148;7.940;2023-04-24T13:02:11;5.28;;;2.30;;
76582;SDS011;65462;52.148;7.940;2023-04-24T13:04:36;8.15;;;2.60;;
76582;SDS011;65462;52.148;7.940;2023-04-24T13:07:02;8.97;;;2.70;;
76582;SDS011;65462;52.148;7.940;2023-04-24T13:09:27;6.03;;;2.50;;
76582;SDS011;65462;52.148;7.940;2023-04-24T13:11:53;9.65;;;3.20;;
76582;SDS011;65462;52.148;7.940;2023-04-24T13:14:18;4.28;;;2.88;;
76582;SDS011;65462;52.148;7.940;2023-04-24T13:16:44;7.65;;;2.80;;
76582;SDS011;65462;52.148;7.940;2023-04-24T13:19:09;8.05;;;2.75;;
76582;SDS011;65462;52.148;7.940;2023-04-24T13:21:35;7.05;;;3.03;;
76582;SDS011;65462;52.148;7.940;2023-04-24T13:24:00;8.48;;;3.03;;
76582;SDS011;65462;52.148;7.940;2023-04-24T13:26:26;6.93;;;3.75;;
76582;SDS011;65462;52.148;7.940;2023-04-24T13:28:51;6.55;;;3.15;;
76582;SDS011;65462;52.148;7.940;2023-04-24T13:31:16;6.05;;;3.20;;
76582;SDS011;65462;52.148;7.940;2023-04-24T13:33:42;6.47;;;2.70;;
76582;SDS011;65462;52.148;7.940;2023-04-24T13:36:07;8.45;;;2.97;;
76582;SDS011;65462;52.148;7.940;2023-04-24T13:38:32;9.25;;;3.38;;
76582;SDS011;65462;52.148;7.940;2023-04-24T13:40:58;7.77;;;3.43;;
76582;SDS011;65462;52.148;7.940;2023-04-24T13:43:23;6.03;;;2.90;;
76582;SDS011;65462;52.148;7.940;2023-04-24T13:45:48;9.95;;;3.22;;
76582;SDS011;65462;52.148;7.940;2023-04-24T13:48:14;7.28;;;3.38;;
76582;SDS011;65462;52.148;7.940;2023-04-24T13:50:42;5.63;;;2.83;;
76582;SDS011;65462;52.148;7.940;2023-04-24T13:53:09;6.63;;;3.08;;
76582;SDS011;65462;52.148;7.940;2023-04-24T13:55:34;7.25;;;3.05;;
76582;SDS011;65462;52.148;7.940;2023-04-24T13:58:00;7.33;;;3.03;;
76582;SDS011;65462;52.148;7.940;2023-04-24T14:00:26;6.65;;;3.08;;
76582;SDS011;65462;52.148;7.940;2023-04-24T14:02:51;5.77;;;2.90;;
76582;SDS011;65462;52.148;7.940;2023-04-24T14:05:16;8.23;;;3.08;;
76582;SDS011;65462;52.148;7.940;2023-04-24T14:07:42;8.03;;;3.43;;
76582;SDS011;65462;52.148;7.940;2023-04-24T14:10:07;11.75;;;2.88;;
76582;SDS011;65462;52.148;7.940;2023-04-24T14:12:33;7.83;;;3.50;;
76582;SDS011;65462;52.148;7.940;2023-04-24T14:14:59;8.65;;;2.90;;
76582;SDS011;65462;52.148;7.940;2023-04-24T14:17:24;6.45;;;3.20;;
76582;SDS011;65462;52.148;7.940;2023-04-24T14:19:49;8.95;;;2.83;;
76582;SDS011;65462;52.148;7.940;2023-04-24T14:22:16;7.78;;;3.03;;
76582;SDS011;65462;52.148;7.940;2023-04-24T14:24:42;8.57;;;3.17;;
76582;SDS011;65462;52.148;7.940;2023-04-24T14:27:07;6.57;;;3.45;;
76582;SDS011;65462;52.148;7.940;2023-04-24T14:29:32;7.03;;;3.47;;
76582;SDS011;65462;52.148;7.940;2023-04-24T14:31:58;9.07;;;3.30;;
76582;SDS011;65462;52.148;7.940;2023-04-24T14:34:23;8.75;;;3.25;;
76582;SDS011;65462;52.148;7.940;2023-04-24T14:36:48;8.75;;;3.20;;
76582;SDS011;65462;52.148;7.940;2023-04-24T14:39:13;6.75;;;3.22;;
76582;SDS011;65462;52.148;7.940;2023-04-24T14:41:39;8.88;;;3.80;;
76582;SDS011;65462;52.148;7.940;2023-04-24T14:44:05;7.82;;;3.10;;
76582;SDS011;65462;52.148;7.940;2023-04-24T14:46:30;8.23;;;3.30;;
76582;SDS011;65462;52.148;7.940;2023-04-24T14:48:56;4.00;;;2.65;;
76582;SDS011;65462;52.148;7.940;2023-04-24T14:51:22;4.88;;;2.83;;
76582;SDS011;65462;52.148;7.940;2023-04-24T14:53:47;4.93;;;2.60;;
76582;SDS011;65462;52.148;7.940;2023-04-24T14:56:13;6.60;;;2.40;;
76582;SDS011;65462;52.148;7.940;2023-04-24T14:58:38;5.15;;;2.53;;